sensor_id;sensor_type;location;lat;lon;timestamp;pressure;altitude;pressure_sealevel;temperature;humidity
67397;BME280;57728;50.448;18.824;2023-07-31T00:00:13;97272.81;;;18.26;72.01
67397;BME280;57728;50.448;18.824;2023-07-31T00:02:14;97490.03;;;19.66;71.95
67397;BME280;57728;50.448;18.824;2023-07-31T00:04:16;97497.78;;;19.64;72.18
67397;BME280;57728;50.448;18.824;2023-07-31T00:06:17;97500.66;;;19.58;72.23
67397;BME280;57728;50.448;18.824;2023-07-31T00:08:18;97504.91;;;19.51;72.07
67397;BME280;57728;50.448;18.824;2023-07-31T00:10:20;97495.91;;;19.45;72.33
67397;BME280;57728;50.448;18.824;2023-07-31T00:12:22;97509.94;;;19.49;72.51
67397;BME280;57728;50.448;18.824;2023-07-31T00:14:24;97452.88;;;19.11;72.72
67397;BME280;57728;50.448;18.824;2023-07-31T00:16:25;97496.31;;;19.38;72.84
67397;BME280;57728;50.448;18.824;2023-07-31T00:18:27;97494.44;;;19.34;72.64
67397;BME280;57728;50.448;18.824;2023-07-31T00:20:28;97497.31;;;19.29;73.10
67397;BME280;57728;50.448;18.824;2023-07-31T00:22:29;97491.78;;;19.29;73.02
67397;BME280;57728;50.448;18.824;2023-07-31T00:24:31;97501.97;;;19.28;72.96
67397;BME280;57728;50.448;18.824;2023-07-31T00:26:32;97506.47;;;19.24;72.85
67397;BME280;57728;50.448;18.824;2023-07-31T00:28:33;97484.34;;;19.10;72.51
67397;BME280;57728;50.448;18.824;2023-07-31T00:30:35;97505.16;;;19.21;72.49
67397;BME280;57728;50.448;18.824;2023-07-31T00:32:37;97499.16;;;19.14;72.21
67397;BME280;57728;50.448;18.824;2023-07-31T00:34:38;97504.91;;;19.18;72.07
67397;BME280;57728;50.448;18.824;2023-07-31T00:36:39;97510.75;;;19.16;71.67
67397;BME280;57728;50.448;18.824;2023-07-31T00:38:40;97512.97;;;19.14;71.55
67397;BME280;57728;50.448;18.824;2023-07-31T00:40:42;97515.50;;;19.11;71.51
67397;BME280;57728;50.448;18.824;2023-07-31T00:42:43;97519.69;;;19.08;71.78
67397;BME280;57728;50.448;18.824;2023-07-31T00:44:44;97490.69;;;18.92;71.49
67397;BME280;57728;50.448;18.824;2023-07-31T00:46:46;97516.41;;;19.06;71.22
67397;BME280;57728;50.448;18.824;2023-07-31T00:48:48;97512.63;;;19.02;71.37
67397;BME280;57728;50.448;18.824;2023-07-31T00:50:50;97524.16;;;19.04;70.93
67397;BME280;57728;50.448;18.824;2023-07-31T00:52:51;97514.31;;;18.98;71.11
67397;BME280;57728;50.448;18.824;2023-07-31T00:54:53;97523.41;;;18.98;70.94
67397;BME280;57728;50.448;18.824;2023-07-31T00:56:55;97514.19;;;18.89;71.27
67397;BME280;57728;50.448;18.824;2023-07-31T00:58:56;97520.44;;;18.95;70.96
67397;BME280;57728;50.448;18.824;2023-07-31T01:00:59;97516.41;;;18.87;71.25
67397;BME280;57728;50.448;18.824;2023-07-31T01:03:00;97527.72;;;18.85;71.17
67397;BME280;57728;50.448;18.824;2023-07-31T01:05:03;97533.22;;;18.85;71.16
67397;BME280;57728;50.448;18.824;2023-07-31T01:07:20;97539.94;;;18.79;71.26
67397;BME280;57728;50.448;18.824;2023-07-31T01:09:37;97543.84;;;18.73;71.31
67397;BME280;57728;50.448;18.824;2023-07-31T01:11:53;97535.13;;;18.66;71.96
67397;BME280;57728;50.448;18.824;2023-07-31T01:13:59;97531.13;;;18.58;71.91
67397;BME280;57728;50.448;18.824;2023-07-31T01:16:00;97539.38;;;18.58;71.83
67397;BME280;57728;50.448;18.824;2023-07-31T01:18:01;97526.84;;;18.47;71.83
67397;BME280;57728;50.448;18.824;2023-07-31T01:20:12;97547.25;;;18.46;72.46
67397;BME280;57728;50.448;18.824;2023-07-31T01:25:31;97541.56;;;18.37;72.83
67397;BME280;57728;50.448;18.824;2023-07-31T01:27:48;97547.59;;;18.39;72.78
67397;BME280;57728;50.448;18.824;2023-07-31T01:30:09;97547.59;;;18.39;72.85
67397;BME280;57728;50.448;18.824;2023-07-31T01:32:19;97513.09;;;18.23;73.13
67397;BME280;57728;50.448;18.824;2023-07-31T01:34:23;97544.53;;;18.41;73.05
67397;BME280;57728;50.448;18.824;2023-07-31T01:36:26;97549.84;;;18.37;73.04
67397;BME280;57728;50.448;18.824;2023-07-31T01:38:29;97531.22;;;18.24;73.21
67397;BME280;57728;50.448;18.824;2023-07-31T01:40:30;97545.22;;;18.32;73.50
67397;BME280;57728;50.448;18.824;2023-07-31T01:42:31;97553.69;;;18.36;73.23
67397;BME280;57728;50.448;18.824;2023-07-31T01:44:33;97554.03;;;18.29;73.50
67397;BME280;57728;50.448;18.824;2023-07-31T01:46:34;97561.44;;;18.34;73.31
67397;BME280;57728;50.448;18.824;2023-07-31T01:48:35;97553.47;;;18.32;73.64
67397;BME280;57728;50.448;18.824;2023-07-31T01:50:37;97566.38;;;18.37;73.36
67397;BME280;57728;50.448;18.824;2023-07-31T01:52:38;97566.66;;;18.35;73.86
67397;BME280;57728;50.448;18.824;2023-07-31T01:54:39;97522.81;;;18.15;73.66
67397;BME280;57728;50.448;18.824;2023-07-31T01:56:41;97558.41;;;18.35;73.52
67397;BME280;57728;50.448;18.824;2023-07-31T01:58:42;97553.09;;;18.39;73.48
67397;BME280;57728;50.448;18.824;2023-07-31T02:00:43;97552.13;;;18.30;73.88
67397;BME280;57728;50.448;18.824;2023-07-31T02:02:45;97552.03;;;18.35;73.91
67397;BME280;57728;50.448;18.824;2023-07-31T02:04:46;97562.72;;;18.42;73.91
67397;BME280;57728;50.448;18.824;2023-07-31T02:06:47;97559.66;;;18.43;73.72
67397;BME280;57728;50.448;18.824;2023-07-31T02:08:49;97559.97;;;18.42;73.43
67397;BME280;57728;50.448;18.824;2023-07-31T02:10:51;97550.41;;;18.34;73.65
67397;BME280;57728;50.448;18.824;2023-07-31T02:12:52;97542.81;;;18.26;73.76
67397;BME280;57728;50.448;18.824;2023-07-31T02:14:54;97548.22;;;18.31;74.18
67397;BME280;57728;50.448;18.824;2023-07-31T02:16:56;97547.72;;;18.29;73.72
67397;BME280;57728;50.448;18.824;2023-07-31T02:18:57;97537.34;;;18.20;74.24
67397;BME280;57728;50.448;18.824;2023-07-31T02:20:59;97561.19;;;18.30;74.39
67397;BME280;57728;50.448;18.824;2023-07-31T02:23:00;97553.81;;;18.26;74.14
67397;BME280;57728;50.448;18.824;2023-07-31T02:25:02;97549.47;;;18.19;74.51
67397;BME280;57728;50.448;18.824;2023-07-31T02:27:04;97558.28;;;18.21;74.51
67397;BME280;57728;50.448;18.824;2023-07-31T02:29:05;97564.00;;;18.25;74.28
67397;BME280;57728;50.448;18.824;2023-07-31T02:31:06;97564.53;;;18.27;74.19
67397;BME280;57728;50.448;18.824;2023-07-31T02:33:10;97581.88;;;18.28;74.41
67397;BME280;57728;50.448;18.824;2023-07-31T02:35:11;97583.53;;;18.29;74.25
67397;BME280;57728;50.448;18.824;2023-07-31T02:37:16;97589.84;;;18.29;74.14
67397;BME280;57728;50.448;18.824;2023-07-31T02:39:17;97547.13;;;18.08;74.09
67397;BME280;57728;50.448;18.824;2023-07-31T02:41:18;97580.25;;;18.27;74.57
67397;BME280;57728;50.448;18.824;2023-07-31T02:43:22;97584.41;;;18.24;74.28
67397;BME280;57728;50.448;18.824;2023-07-31T02:45:24;97584.66;;;18.28;74.37
67397;BME280;57728;50.448;18.824;2023-07-31T02:47:25;97590.16;;;18.28;74.50
67397;BME280;57728;50.448;18.824;2023-07-31T02:49:26;97586.41;;;18.18;74.82
67397;BME280;57728;50.448;18.824;2023-07-31T02:51:28;97600.38;;;18.27;74.71
67397;BME280;57728;50.448;18.824;2023-07-31T02:53:29;97601.47;;;18.26;74.66
67397;BME280;57728;50.448;18.824;2023-07-31T02:55:31;97593.50;;;18.25;74.46
67397;BME280;57728;50.448;18.824;2023-07-31T02:57:32;97594.31;;;18.25;74.45
67397;BME280;57728;50.448;18.824;2023-07-31T02:59:34;97586.34;;;18.24;74.77
67397;BME280;57728;50.448;18.824;2023-07-31T03:01:36;97600.38;;;18.27;74.48
67397;BME280;57728;50.448;18.824;2023-07-31T03:03:38;97599.31;;;18.23;74.10
67397;BME280;57728;50.448;18.824;2023-07-31T03:05:39;97592.38;;;18.26;74.39
67397;BME280;57728;50.448;18.824;2023-07-31T03:07:40;97601.47;;;18.26;74.43
67397;BME280;57728;50.448;18.824;2023-07-31T03:09:42;97596.78;;;18.27;74.03
67397;BME280;57728;50.448;18.824;2023-07-31T03:11:43;97602.31;;;18.27;74.12
67397;BME280;57728;50.448;18.824;2023-07-31T03:13:44;97591.34;;;18.21;73.63
67397;BME280;57728;50.448;18.824;2023-07-31T03:15:46;97587.56;;;18.12;73.80
67397;BME280;57728;50.448;18.824;2023-07-31T03:17:47;97592.50;;;18.15;74.01
67397;BME280;57728;50.448;18.824;2023-07-31T03:19:48;97596.28;;;18.19;74.12
67397;BME280;57728;50.448;18.824;2023-07-31T03:21:50;97591.06;;;18.18;73.93
67397;BME280;57728;50.448;18.824;2023-07-31T03:23:51;97590.56;;;18.16;73.98
67397;BME280;57728;50.448;18.824;2023-07-31T03:26:00;97584.88;;;18.07;74.05
67397;BME280;57728;50.448;18.824;2023-07-31T03:28:07;97592.00;;;18.08;73.82
67397;BME280;57728;50.448;18.824;2023-07-31T03:30:08;97593.69;;;18.04;74.20
67397;BME280;57728;50.448;18.824;2023-07-31T03:32:11;97598.66;;;18.07;74.20
67397;BME280;57728;50.448;18.824;2023-07-31T03:34:13;97575.88;;;17.96;74.35
67397;BME280;57728;50.448;18.824;2023-07-31T03:36:14;97587.03;;;18.10;74.19
67397;BME280;57728;50.448;18.824;2023-07-31T03:38:15;97595.31;;;18.10;74.03
67397;BME280;57728;50.448;18.824;2023-07-31T03:40:17;97599.16;;;18.09;74.39
67397;BME280;57728;50.448;18.824;2023-07-31T03:42:18;97590.38;;;18.07;74.13
67397;BME280;57728;50.448;18.824;2023-07-31T03:44:19;97607.13;;;18.11;74.05
67397;BME280;57728;50.448;18.824;2023-07-31T03:46:22;97590.38;;;18.07;73.85
67397;BME280;57728;50.448;18.824;2023-07-31T03:48:25;97585.69;;;18.08;73.99
67397;BME280;57728;50.448;18.824;2023-07-31T03:50:26;97593.66;;;18.09;73.80
67397;BME280;57728;50.448;18.824;2023-07-31T03:52:28;97582.13;;;18.07;73.84
67397;BME280;57728;50.448;18.824;2023-07-31T03:54:29;97577.97;;;18.10;74.17
67397;BME280;57728;50.448;18.824;2023-07-31T03:56:30;97579.84;;;18.14;74.39
67397;BME280;57728;50.448;18.824;2023-07-31T03:58:32;97590.53;;;18.21;74.11
67397;BME280;57728;50.448;18.824;2023-07-31T04:00:33;97600.94;;;18.24;73.79
67397;BME280;57728;50.448;18.824;2023-07-31T04:02:34;97583.19;;;18.11;73.22
67397;BME280;57728;50.448;18.824;2023-07-31T04:04:36;97554.53;;;17.78;73.03
67397;BME280;57728;50.448;18.824;2023-07-31T04:06:37;97621.34;;;18.23;73.24
67397;BME280;57728;50.448;18.824;2023-07-31T04:08:38;97621.34;;;18.23;73.61
67397;BME280;57728;50.448;18.824;2023-07-31T04:10:40;97623.00;;;18.24;73.08
67397;BME280;57728;50.448;18.824;2023-07-31T04:12:41;97607.56;;;18.23;73.25
67397;BME280;57728;50.448;18.824;2023-07-31T04:14:42;97606.75;;;18.23;73.29
67397;BME280;57728;50.448;18.824;2023-07-31T04:16:44;97609.50;;;18.23;72.92
67397;BME280;57728;50.448;18.824;2023-07-31T04:18:45;97624.88;;;18.29;73.29
67397;BME280;57728;50.448;18.824;2023-07-31T04:20:46;97612.19;;;18.28;72.88
67397;BME280;57728;50.448;18.824;2023-07-31T04:22:49;97595.78;;;18.17;72.71
67397;BME280;57728;50.448;18.824;2023-07-31T04:24:50;97617.06;;;18.36;72.84
67397;BME280;57728;50.448;18.824;2023-07-31T04:26:52;97612.63;;;18.40;72.48
67397;BME280;57728;50.448;18.824;2023-07-31T04:28:54;97611.50;;;18.41;72.79
67397;BME280;57728;50.448;18.824;2023-07-31T04:30:55;97587.09;;;18.29;72.57
67397;BME280;57728;50.448;18.824;2023-07-31T04:32:56;97615.22;;;18.55;72.37
67397;BME280;57728;50.448;18.824;2023-07-31T04:34:58;97613.50;;;18.60;72.03
67397;BME280;57728;50.448;18.824;2023-07-31T04:36:59;97602.78;;;18.58;72.16
67397;BME280;57728;50.448;18.824;2023-07-31T04:39:01;97599.19;;;18.58;71.65
67397;BME280;57728;50.448;18.824;2023-07-31T04:41:03;97622.72;;;18.74;71.41
67397;BME280;57728;50.448;18.824;2023-07-31T04:43:04;97622.13;;;18.77;70.75
67397;BME280;57728;50.448;18.824;2023-07-31T04:45:06;97630.84;;;18.84;70.98
67397;BME280;57728;50.448;18.824;2023-07-31T04:47:09;97628.59;;;18.92;70.40
67397;BME280;57728;50.448;18.824;2023-07-31T04:49:10;97602.31;;;18.75;69.91
67397;BME280;57728;50.448;18.824;2023-07-31T04:51:15;97627.72;;;18.96;69.83
67397;BME280;57728;50.448;18.824;2023-07-31T04:53:17;97625.16;;;19.00;70.04
67397;BME280;57728;50.448;18.824;2023-07-31T04:55:18;97626.31;;;18.99;69.21
67397;BME280;57728;50.448;18.824;2023-07-31T04:57:19;97624.19;;;18.90;69.37
67397;BME280;57728;50.448;18.824;2023-07-31T04:59:21;97615.16;;;18.85;69.37
67397;BME280;57728;50.448;18.824;2023-07-31T05:01:22;97627.72;;;18.96;69.40
67397;BME280;57728;50.448;18.824;2023-07-31T05:03:23;97626.31;;;18.99;69.32
67397;BME280;57728;50.448;18.824;2023-07-31T05:05:25;97616.91;;;19.00;69.38
67397;BME280;57728;50.448;18.824;2023-07-31T05:07:26;97620.94;;;19.07;68.51
67397;BME280;57728;50.448;18.824;2023-07-31T05:09:27;97620.66;;;19.09;68.49
67397;BME280;57728;50.448;18.824;2023-07-31T05:11:29;97623.09;;;19.11;68.51
67397;BME280;57728;50.448;18.824;2023-07-31T05:13:30;97626.31;;;19.18;68.58
67397;BME280;57728;50.448;18.824;2023-07-31T05:15:31;97620.56;;;19.14;68.39
67397;BME280;57728;50.448;18.824;2023-07-31T05:17:33;97629.03;;;19.23;68.26
67397;BME280;57728;50.448;18.824;2023-07-31T05:19:34;97622.16;;;19.20;67.71
67397;BME280;57728;50.448;18.824;2023-07-31T05:21:35;97628.41;;;19.26;67.61
67397;BME280;57728;50.448;18.824;2023-07-31T05:23:37;97622.59;;;19.28;67.56
67397;BME280;57728;50.448;18.824;2023-07-31T05:25:38;97616.19;;;19.32;67.55
67397;BME280;57728;50.448;18.824;2023-07-31T05:27:39;97621.53;;;19.42;67.11
67397;BME280;57728;50.448;18.824;2023-07-31T05:29:41;97630.06;;;19.46;66.88
67397;BME280;57728;50.448;18.824;2023-07-31T05:31:42;97623.31;;;19.52;66.70
67397;BME280;57728;50.448;18.824;2023-07-31T05:33:43;97622.75;;;19.55;66.68
67397;BME280;57728;50.448;18.824;2023-07-31T05:35:45;97623.69;;;19.65;66.42
67397;BME280;57728;50.448;18.824;2023-07-31T05:37:47;97605.28;;;19.60;65.81
67397;BME280;57728;50.448;18.824;2023-07-31T05:39:48;97611.00;;;19.64;65.82
67397;BME280;57728;50.448;18.824;2023-07-31T05:41:50;97636.53;;;19.74;64.98
67397;BME280;57728;50.448;18.824;2023-07-31T05:43:51;97626.81;;;19.77;65.62
67397;BME280;57728;50.448;18.824;2023-07-31T05:45:52;97623.09;;;19.87;64.92
67397;BME280;57728;50.448;18.824;2023-07-31T05:47:54;97628.31;;;19.88;64.55
67397;BME280;57728;50.448;18.824;2023-07-31T05:49:55;97621.69;;;19.89;64.08
67397;BME280;57728;50.448;18.824;2023-07-31T05:51:56;97632.63;;;19.95;64.01
67397;BME280;57728;50.448;18.824;2023-07-31T05:53:58;97637.03;;;19.96;63.50
67397;BME280;57728;50.448;18.824;2023-07-31T05:55:59;97634.28;;;19.96;63.88
67397;BME280;57728;50.448;18.824;2023-07-31T05:58:00;97628.88;;;20.04;63.44
67397;BME280;57728;50.448;18.824;2023-07-31T06:00:03;97625.31;;;20.04;63.27
67397;BME280;57728;50.448;18.824;2023-07-31T06:02:05;97632.25;;;20.01;62.98
67397;BME280;57728;50.448;18.824;2023-07-31T06:04:06;97635.00;;;20.01;62.70
67397;BME280;57728;50.448;18.824;2023-07-31T06:06:08;97637.41;;;20.08;62.52
67397;BME280;57728;50.448;18.824;2023-07-31T06:08:10;97640.59;;;20.15;63.08
67397;BME280;57728;50.448;18.824;2023-07-31T06:10:11;97625.94;;;20.15;62.84
67397;BME280;57728;50.448;18.824;2023-07-31T06:12:12;97635.59;;;20.31;62.08
67397;BME280;57728;50.448;18.824;2023-07-31T06:14:14;97616.13;;;20.22;61.87
67397;BME280;57728;50.448;18.824;2023-07-31T06:16:16;97613.78;;;20.30;61.87
67397;BME280;57728;50.448;18.824;2023-07-31T06:18:18;97640.03;;;20.46;61.18
67397;BME280;57728;50.448;18.824;2023-07-31T06:20:19;97635.31;;;20.47;60.99
67397;BME280;57728;50.448;18.824;2023-07-31T06:22:20;97633.88;;;20.49;60.80
67397;BME280;57728;50.448;18.824;2023-07-31T06:24:22;97633.88;;;20.49;60.60
67397;BME280;57728;50.448;18.824;2023-07-31T06:26:24;97626.72;;;20.48;60.49
67397;BME280;57728;50.448;18.824;2023-07-31T06:28:29;97641.78;;;20.56;60.68
67397;BME280;57728;50.448;18.824;2023-07-31T06:30:32;97632.03;;;20.58;60.61
67397;BME280;57728;50.448;18.824;2023-07-31T06:32:33;97634.41;;;20.65;60.16
67397;BME280;57728;50.448;18.824;2023-07-31T06:34:34;97628.47;;;20.58;60.21
67397;BME280;57728;50.448;18.824;2023-07-31T06:36:36;97626.09;;;20.65;59.92
67397;BME280;57728;50.448;18.824;2023-07-31T06:38:37;97629.72;;;20.66;60.00
67397;BME280;57728;50.448;18.824;2023-07-31T06:40:38;97626.03;;;20.70;59.70
67397;BME280;57728;50.448;18.824;2023-07-31T06:42:40;97621.94;;;20.68;59.40
67397;BME280;57728;50.448;18.824;2023-07-31T06:44:43;97619.28;;;20.76;58.99
67397;BME280;57728;50.448;18.824;2023-07-31T06:46:44;97624.91;;;20.85;59.38
67397;BME280;57728;50.448;18.824;2023-07-31T06:48:46;97639.44;;;20.91;59.22
67397;BME280;57728;50.448;18.824;2023-07-31T06:50:47;97631.69;;;20.93;59.22
67397;BME280;57728;50.448;18.824;2023-07-31T06:52:48;97639.03;;;20.98;59.05
67397;BME280;57728;50.448;18.824;2023-07-31T06:55:17;97630.94;;;21.01;58.85
67397;BME280;57728;50.448;18.824;2023-07-31T06:57:22;97633.28;;;21.08;58.71
67397;BME280;57728;50.448;18.824;2023-07-31T06:59:23;97636.75;;;21.13;58.63
67397;BME280;57728;50.448;18.824;2023-07-31T07:01:25;97643.13;;;21.14;58.09
67397;BME280;57728;50.448;18.824;2023-07-31T07:03:27;97638.00;;;21.07;58.24
67397;BME280;57728;50.448;18.824;2023-07-31T07:05:28;97639.97;;;21.07;57.16
67397;BME280;57728;50.448;18.824;2023-07-31T07:07:30;97633.00;;;20.95;57.92
67397;BME280;57728;50.448;18.824;2023-07-31T07:09:31;97639.97;;;21.07;57.92
67397;BME280;57728;50.448;18.824;2023-07-31T07:11:32;97629.41;;;21.09;57.91
67397;BME280;57728;50.448;18.824;2023-07-31T07:13:34;97643.53;;;21.21;57.47
67397;BME280;57728;50.448;18.824;2023-07-31T07:15:35;97626.53;;;21.14;57.13
67397;BME280;57728;50.448;18.824;2023-07-31T07:17:36;97631.66;;;21.21;56.83
67397;BME280;57728;50.448;18.824;2023-07-31T07:19:40;97630.28;;;21.32;56.76
67397;BME280;57728;50.448;18.824;2023-07-31T07:21:41;97636.53;;;21.38;56.59
67397;BME280;57728;50.448;18.824;2023-07-31T07:23:42;97569.56;;;20.99;56.21
67397;BME280;57728;50.448;18.824;2023-07-31T07:25:45;97640.50;;;21.45;56.36
67397;BME280;57728;50.448;18.824;2023-07-31T07:27:47;97647.47;;;21.57;55.96
67397;BME280;57728;50.448;18.824;2023-07-31T07:29:50;97616.00;;;21.53;55.68
67397;BME280;57728;50.448;18.824;2023-07-31T07:31:55;97627.03;;;21.67;55.81
67397;BME280;57728;50.448;18.824;2023-07-31T07:33:56;97630.66;;;21.76;55.66
67397;BME280;57728;50.448;18.824;2023-07-31T07:36:01;97633.53;;;21.85;55.27
67397;BME280;57728;50.448;18.824;2023-07-31T07:38:03;97629.31;;;21.87;55.54
67397;BME280;57728;50.448;18.824;2023-07-31T07:40:05;97638.06;;;22.03;55.37
67397;BME280;57728;50.448;18.824;2023-07-31T07:42:06;97627.03;;;22.12;55.54
67397;BME280;57728;50.448;18.824;2023-07-31T07:44:09;97604.84;;;22.12;55.14
67397;BME280;57728;50.448;18.824;2023-07-31T07:46:14;97633.03;;;22.37;54.45
67397;BME280;57728;50.448;18.824;2023-07-31T07:48:15;97628.50;;;22.41;53.84
67397;BME280;57728;50.448;18.824;2023-07-31T07:50:18;97641.13;;;22.47;53.85
67397;BME280;57728;50.448;18.824;2023-07-31T07:52:19;97639.47;;;22.46;53.35
67397;BME280;57728;50.448;18.824;2023-07-31T07:54:21;97640.28;;;22.46;53.71
67397;BME280;57728;50.448;18.824;2023-07-31T07:56:23;97645.34;;;22.44;53.12
67397;BME280;57728;50.448;18.824;2023-07-31T07:58:26;97635.56;;;22.47;53.76
67397;BME280;57728;50.448;18.824;2023-07-31T08:00:27;97648.97;;;22.54;53.20
67397;BME280;57728;50.448;18.824;2023-07-31T08:02:29;97633.97;;;22.55;53.23
67397;BME280;57728;50.448;18.824;2023-07-31T08:04:30;97635.97;;;22.63;53.28
67397;BME280;57728;50.448;18.824;2023-07-31T08:06:31;97625.19;;;22.61;52.90
67397;BME280;57728;50.448;18.824;2023-07-31T08:08:33;97643.38;;;22.76;52.66
67397;BME280;57728;50.448;18.824;2023-07-31T08:10:34;97639.28;;;22.74;52.65
67397;BME280;57728;50.448;18.824;2023-07-31T08:12:35;97624.25;;;22.75;52.44
67397;BME280;57728;50.448;18.824;2023-07-31T08:14:37;97629.69;;;22.97;52.92
67397;BME280;57728;50.448;18.824;2023-07-31T08:16:38;97646.88;;;23.08;52.05
67397;BME280;57728;50.448;18.824;2023-07-31T08:18:39;97638.06;;;23.06;52.06
67397;BME280;57728;50.448;18.824;2023-07-31T08:20:41;97642.03;;;23.14;51.29
67397;BME280;57728;50.448;18.824;2023-07-31T08:22:43;97642.03;;;23.14;51.41
67397;BME280;57728;50.448;18.824;2023-07-31T08:24:44;97639.75;;;23.16;51.27
67397;BME280;57728;50.448;18.824;2023-07-31T08:26:47;97645.44;;;23.11;51.89
67397;BME280;57728;50.448;18.824;2023-07-31T08:28:48;97638.88;;;23.07;51.86
67397;BME280;57728;50.448;18.824;2023-07-31T08:30:49;97644.34;;;23.21;51.95
67397;BME280;57728;50.448;18.824;2023-07-31T08:32:52;97651.03;;;23.28;51.85
67397;BME280;57728;50.448;18.824;2023-07-31T08:34:53;97641.56;;;23.29;51.70
67397;BME280;57728;50.448;18.824;2023-07-31T08:36:54;97638.00;;;23.29;51.95
67397;BME280;57728;50.448;18.824;2023-07-31T08:38:56;97639.44;;;23.26;50.72
67397;BME280;57728;50.448;18.824;2023-07-31T08:40:57;97637.16;;;23.20;50.60
67397;BME280;57728;50.448;18.824;2023-07-31T08:42:58;97649.72;;;23.26;50.87
67397;BME280;57728;50.448;18.824;2023-07-31T08:45:04;97635.84;;;23.26;50.37
67397;BME280;57728;50.448;18.824;2023-07-31T08:47:07;97627.50;;;23.17;51.15
67397;BME280;57728;50.448;18.824;2023-07-31T08:49:09;97630.13;;;23.22;50.05
67397;BME280;57728;50.448;18.824;2023-07-31T08:51:14;97636.81;;;23.30;50.35
67397;BME280;57728;50.448;18.824;2023-07-31T08:53:16;97640.44;;;23.39;49.57
67397;BME280;57728;50.448;18.824;2023-07-31T08:55:19;97609.56;;;23.23;49.23
67397;BME280;57728;50.448;18.824;2023-07-31T08:57:26;97630.97;;;23.40;49.33
67397;BME280;57728;50.448;18.824;2023-07-31T08:59:31;97647.78;;;23.44;48.42
67397;BME280;57728;50.448;18.824;2023-07-31T09:01:43;97637.66;;;23.30;49.12
67397;BME280;57728;50.448;18.824;2023-07-31T09:03:51;97634.56;;;23.23;49.05
67397;BME280;57728;50.448;18.824;2023-07-31T09:05:55;97639.94;;;23.28;49.24
67397;BME280;57728;50.448;18.824;2023-07-31T09:07:57;97642.91;;;23.41;49.49
67397;BME280;57728;50.448;18.824;2023-07-31T09:09:59;97626.22;;;23.58;49.54
67397;BME280;57728;50.448;18.824;2023-07-31T09:12:01;97638.84;;;23.73;47.83
67397;BME280;57728;50.448;18.824;2023-07-31T09:14:03;97629.03;;;23.76;47.73
67397;BME280;57728;50.448;18.824;2023-07-31T09:16:10;97613.34;;;23.80;47.18
67397;BME280;57728;50.448;18.824;2023-07-31T09:18:12;97632.63;;;24.02;47.28
67397;BME280;57728;50.448;18.824;2023-07-31T09:20:15;97630.00;;;24.06;47.32
67397;BME280;57728;50.448;18.824;2023-07-31T09:22:31;97633.09;;;24.13;46.94
67397;BME280;57728;50.448;18.824;2023-07-31T09:24:35;97626.06;;;24.16;46.15
67397;BME280;57728;50.448;18.824;2023-07-31T09:26:36;97629.66;;;24.25;46.53
67397;BME280;57728;50.448;18.824;2023-07-31T09:28:39;97616.97;;;24.45;46.52
67397;BME280;57728;50.448;18.824;2023-07-31T09:30:48;97619.00;;;24.83;46.23
67397;BME280;57728;50.448;18.824;2023-07-31T09:32:52;97632.72;;;25.18;44.48
67397;BME280;57728;50.448;18.824;2023-07-31T09:35:19;97627.25;;;25.52;44.55
67397;BME280;57728;50.448;18.824;2023-07-31T09:37:21;97627.75;;;25.75;44.02
67397;BME280;57728;50.448;18.824;2023-07-31T09:39:22;97623.31;;;25.95;43.94
67397;BME280;57728;50.448;18.824;2023-07-31T09:41:26;97628.94;;;26.41;43.76
67397;BME280;57728;50.448;18.824;2023-07-31T09:43:27;97621.91;;;26.68;41.25
67397;BME280;57728;50.448;18.824;2023-07-31T09:45:29;97629.59;;;26.96;40.03
67397;BME280;57728;50.448;18.824;2023-07-31T09:47:32;97626.13;;;27.36;40.18
67397;BME280;57728;50.448;18.824;2023-07-31T09:49:33;97620.31;;;27.70;39.30
67397;BME280;57728;50.448;18.824;2023-07-31T09:51:35;97618.75;;;27.85;38.51
67397;BME280;57728;50.448;18.824;2023-07-31T09:53:40;97629.91;;;27.97;37.45
67397;BME280;57728;50.448;18.824;2023-07-31T09:55:41;97631.44;;;27.94;37.09
67397;BME280;57728;50.448;18.824;2023-07-31T09:57:48;97625.69;;;27.62;37.37
67397;BME280;57728;50.448;18.824;2023-07-31T09:59:52;97609.56;;;27.19;38.27
67397;BME280;57728;50.448;18.824;2023-07-31T10:01:56;97631.22;;;26.85;38.42
67397;BME280;57728;50.448;18.824;2023-07-31T10:03:58;97627.25;;;26.61;39.18
67397;BME280;57728;50.448;18.824;2023-07-31T10:06:03;97618.88;;;26.61;39.62
67397;BME280;57728;50.448;18.824;2023-07-31T10:08:10;97629.72;;;26.87;39.89
67397;BME280;57728;50.448;18.824;2023-07-31T10:10:15;97617.50;;;27.17;38.37
67397;BME280;57728;50.448;18.824;2023-07-31T10:12:19;97601.09;;;27.15;37.59
67397;BME280;57728;50.448;18.824;2023-07-31T10:14:24;97600.97;;;27.36;36.26
67397;BME280;57728;50.448;18.824;2023-07-31T10:16:27;97597.44;;;27.52;37.04
67397;BME280;57728;50.448;18.824;2023-07-31T10:18:29;97582.16;;;28.18;36.77
67397;BME280;57728;50.448;18.824;2023-07-31T10:20:32;97589.63;;;28.90;35.87
67397;BME280;57728;50.448;18.824;2023-07-31T10:22:34;97555.56;;;29.24;34.84
67397;BME280;57728;50.448;18.824;2023-07-31T10:24:37;97593.47;;;29.73;33.09
67397;BME280;57728;50.448;18.824;2023-07-31T10:26:39;97588.88;;;29.64;32.73
67397;BME280;57728;50.448;18.824;2023-07-31T10:28:47;97597.75;;;29.66;32.91
67397;BME280;57728;50.448;18.824;2023-07-31T10:30:51;97579.97;;;29.78;32.58
67397;BME280;57728;50.448;18.824;2023-07-31T10:32:53;97591.78;;;29.68;32.98
67397;BME280;57728;50.448;18.824;2023-07-31T10:34:56;97601.50;;;29.55;33.11
67397;BME280;57728;50.448;18.824;2023-07-31T10:39:36;97598.66;;;29.90;32.88
67397;BME280;57728;50.448;18.824;2023-07-31T10:41:40;97586.81;;;29.61;32.93
67397;BME280;57728;50.448;18.824;2023-07-31T10:43:42;97577.00;;;29.52;33.80
67397;BME280;57728;50.448;18.824;2023-07-31T10:45:45;97582.31;;;29.57;34.02